KMRN

Details ICAO KMRN (MRN)
Name FOOTHILLS RGNL
Region United States
Timezone America/New_York (UTC-4.0)
Plans Departing 2
Arriving 4
Stats Elevation 1,270 ft / 387 m (AMSL)
Location 35.820234° -81.611411°
Runways 1
Magnetic Variation 7.373° W
Sunrise 2018-05-25 10:15:59 UTC / 2018-05-25 06:15:59 Local
Sunset 2018-05-26 00:33:41 UTC / 2018-05-25 20:33:41 Local
Advertisement - Login to hide

Runways

ID Width Length Bearing (true) Bearing (mag) Surface Threshold Offset Overrun Length
03 75 ft / 23 m 5,510 ft / 1,679 m 23.51° 30.88° Asphalt 0 ft / 0 m 0 ft / 0 m
21 75 ft / 23 m 5,510 ft / 1,679 m 203.51° 210.88° Asphalt 0 ft / 0 m 0 ft / 0 m

Approach Navaids

Runway Type Ident Frequency Range Bearing (true) Bearing (mag) Slope Elevation
03 Localiser MRN 110.10 MHz 18 nm / 33 km 23.51° 30.88° - 1,270 ft / 387 m (AMSL)

Map

Weather


0- 5 10 15 20 25 30 35+ Temperature / ° C

Clouds and Precipitation
Forecast for 2018-05-25 06:00 UTC. Updated an hour ago

Ground ~20,000 ft ~40,000 ft Winds

METAR

KMRN 250555Z AUTO 10003KT 10SM BKN022 OVC029 20/20 A3019 RMK AO2 T01980198 10241 20190 402640172

TAF

Not found

Frequencies

Recorded 124.17 MHz AWOS 3
Unicom 122.70 MHz CTAF/UNICOM
Warning: Do not use this data for real-world aviation or navigation. No guarantee of current accuracy is given.